Briefing drone pour Portes-les-valence

Rechercher une autre localisation

Conditions de vol :


Nous sommes le : Jeudi 25 février 2021
Il est 19:29 UTC (20:29 LT)

Lever de soleil : 05:57 UTC (06:57 LT)
Coucher de soleil : 17:49 UTC (18:49 LT)

Météo

L'essentiel des conditions de vol

VIGILANCE MÉTÉO FRANCE - Drôme (26)
Pas de vigilances particulieres
METAR de LFLU
LFLU 251800Z AUTO 16010KT CAVOK 14/02 Q1029

Date d'émission: 25/02/2021
Heure d'émission: 18:00 UTC
Vent: 160° pour 10 KT (19 km/h)
Visibilité horizontale: > 10 km
Plafond : Plafond et visibilité OK (CAVOK)
Température: 14 °C
Point de rosée: 2 °C
Humidité: 44%
Pression (QNH): 1029 hPa
Prévision 24h pour Valence (5 km)
Vent : 1° pour 5 KT (17 km/h)
Temperature Maxi: 16 °C
Temperature Min: 16 °C
Humidité : 56%
Condition : Nuageux



Warning: count(): Parameter must be an array or an object that implements Countable in /homepages/6/d509196549/htdocs/droneoxygene/briefing.php on line 743
WEBCAM POUR PORTES-LES-VALENCE

Réglementation

Voler en sécurité

CARTES AERONAUTIQUE 1/500.000
CARTES VAC (LFLU)
SUP AIP




Chargement des AIP...
NOTAM (PORTES-LES-VALENCE + Terrain à proximité / FIR )




Chargement des NOTAMS...
CONTACT PREFECTURE 26
Drôme (26) : ddt-sdsr@drome.gouv.fr


Avertissement : Les données mises à disposition sont indicatives. Oxygène Drone ne pourra être tenu responsable de dégâts causés aux biens et aux personnes.